TOURFACTS.DK  
Stats and Facts from Tour de France.

Tour de France 2018 starts in 13 days
  Riders   Stages   Teams   Summits   Yearly  


 
Search by year

After 2017 - Stage 21:
 14824 starters.
  5132 different riders.
  639 teams.
  2232 stages.
  456 restdays.
  439589.60 km.
  5653 abandonnees.


Top 3
GC
Christopher Froome86:20:55
Rigoberto Urán86:21:49
Romain Bardet86:23:15
Climb
Warren Barguil169 pt.
Primoz Roglic80 pt.
Thomas De Gendt64 pt.
Sprint
Michael Matthews359 pt.
André Greipel234 pt.
Edvald Boasson Hagen220 pt.
Youth
Simon Yates86:27:09
Louis Meintjes86:29:15
Emanuel Buchmann86:54:16
Facts from Tour de France 2010
  |   Stages.  |   Stage winners.  |   Days in yellow  |   Average speed.  |   Route.  |   Teams.  |   All riders.  |   Rookies.  |  

  |   Withdrawls.  |   GC.  |   Polka  |   Green  |   White  |   Summits. (In tour)  |   Miscellaneous.  |  

Stage 8 on 11 - 07 - 2010
         Owning:    Cadel Evans    
Pick a stage:  Pro 1 2 3 4 5 6 7 8 9 10 11 12 13 14 15 16 17 18 19 20
  Station-des-RoussesMorzine-Avoriaz | Dist: 189.00 km.
Cat: 4Côte de Petite JouxURSRein Taaramäe
3 points
 
Cat: 4Côte de GrasinFRAChristophe Riblon
3 points
 
Cat: 1Col de la RamazBELMario Aerts
15 points
 
Cat: 3Côte de GetsBELMario Aerts
4 points
 
Cat: 1Avoriaz - MorzineLUXAndy Schleck
30 points
 

Average speed for all riders in stage:  36,084 km./hr.
    Place:Name:Team:Time:Km/h:
LUXAndy SchleckDNKTeam Saxo Bank04:54:11  +  00:00:00=38,547 
ESPSamuel SanchezESPEuskaltel - Euskadi04:54:11  +  00:00:00=38,547 
3 ESPImanol ErvitiESPCaisse d´Epargne04:54:11  +  00:00:00=38,547 
NEDRobert GesinkNLDRabobank04:54:21  +  00:00:10=38,526 
5 CZERoman KreuzigerITALiquigas-Doimo04:54:21  +  00:00:10=38,526 
6 AUSCadel EvansUSABMC Racing Team04:54:21  +  00:00:10=38,526 
7 BELJurgen Van Den BroeckBELOmega Pharma - Lotto04:54:21  +  00:00:10=38,526 
8 USALevi LeipheimerUSATeam Radio Shack04:54:21  +  00:00:10=38,526 
9 ITAIvan BassoITALiquigas-Doimo04:54:21  +  00:00:10=38,526 
10 RUSDenis MenchovNLDRabobank04:54:21  +  00:00:10=38,526 
11 ESPCarlos SastreCHECervelo Test Team04:54:21  +  00:00:10=38,526 
12 ESPAlberto ContadorKAZAstana Pro Team04:54:31  +  00:00:20=38,504 
13 AUSMichael RogersUSATeam Columbia-HTC04:54:31  +  00:00:20=38,504 
14 ESPJoaquim RodriguezRUSTeam Katusha04:54:50  +  00:00:39=38,462 
15 CANRyder HesjedalUSAGarmin-Transitions04:55:25  +  00:01:14=38,386 
16 BELKevin De WeertBELQuick Step04:55:25  +  00:01:14=38,386 
17 GERAndréas KlödenUSATeam Radio Shack04:55:25  +  00:01:14=38,386 
18 ESPRubén PlazaESPCaisse d´Epargne04:55:48  +  00:01:37=38,337 
19 SWEThomas LövkvistGBRSky Procycling04:55:56  +  00:01:45=38,319 
20 BELBradley WigginsGBRSky Procycling04:55:56  +  00:01:45=38,319 
21 FRAAnthony CharteauFRABbox Bouygues Telecom04:56:16  +  00:02:05=38,276 
22 SUISteve MorabitoUSABMC Racing Team04:56:26  +  00:02:15=38,255 
23 FRAJohn GadretFRAAg2r La Mondiale04:56:29  +  00:02:18=38,248 
24 FRANicolas RocheFRAAg2r La Mondiale04:56:29  +  00:02:18=38,248 
25 ESPDaniel NavarroKAZAstana Pro Team04:56:31  +  00:02:20=38,244 
26 ITAEros CapecchiESPFooton-Servetto04:56:34  +  00:02:23=38,238 
27 ESPRafael Valls FerriESPFooton-Servetto04:56:34  +  00:02:23=38,238 
28 KAZAlexandre VinokourovKAZAstana Pro Team04:56:34  +  00:02:23=38,238 
29 FRADamien MonierFRACofidis Le Credit En Ligne04:56:34  +  00:02:23=38,238 
30 FRAChristophe RiblonFRAAg2r La Mondiale04:57:38  +  00:03:27=38,101 
31 NEDKoos MoerenhoutNLDRabobank04:57:38  +  00:03:27=38,101 
32 ESPLuis León SánchezESPCaisse d´Epargne04:57:38  +  00:03:27=38,101 
33 FRAAmaël MoinardFRACofidis Le Credit En Ligne04:57:38  +  00:03:27=38,101 
34 JPNChristopher HornerUSATeam Radio Shack04:58:16  +  00:04:05=38,020 
35 UKRVolodymir GustovCHECervelo Test Team04:58:44  +  00:04:33=37,960 
36 ESPArkaitz DuranESPFooton-Servetto04:59:16  +  00:05:05=37,893 
37 ESPDaniel MorenoBELOmega Pharma - Lotto04:59:57  +  00:05:46=37,806 
38 BELMario AertsBELOmega Pharma - Lotto04:59:58  +  00:05:47=37,804 
39 FRASandy CasarFRAFrancaise Des Jeux05:00:41  +  00:06:30=37,714 
40 BELJohan VansummerenUSAGarmin-Transitions05:00:41  +  00:06:30=37,714 
41 ESPJuan Manuel GarateNLDRabobank05:00:41  +  00:06:30=37,714 
42 FRAJulien El FarèsFRACofidis Le Credit En Ligne05:00:41  +  00:06:30=37,714 
43 FRAMathieu PergetESPCaisse d´Epargne05:00:41  +  00:06:30=37,714 
44 BELMaxime MonfortUSATeam Columbia-HTC05:00:41  +  00:06:30=37,714 
45 BLRKanstantin SivtsovUSATeam Columbia-HTC05:00:41  +  00:06:30=37,714 
46 GERGrischa NiermannNLDRabobank05:00:41  +  00:06:30=37,714 
47 ESPGorka VerdugoESPEuskaltel - Euskadi05:00:41  +  00:06:30=37,714 
48 POLSylvester SzmydITALiquigas-Doimo05:00:41  +  00:06:30=37,714 
49 FRAChristophe Le MevelFRAFrancaise Des Jeux05:00:41  +  00:06:30=37,714 
50 FINCharles WegeliusBELOmega Pharma - Lotto05:00:41  +  00:06:30=37,714 
51 ESPIvan VelascoESPEuskaltel - Euskadi05:01:59  +  00:07:48=37,552 
52 FRAPierre RollandFRABbox Bouygues Telecom05:02:21  +  00:08:10=37,506 
53 FRARémi PauriolFRACofidis Le Credit En Ligne05:02:21  +  00:08:10=37,506 
54 DENBrian VandborgITALiquigas-Doimo05:03:23  +  00:09:12=37,378 
55 NEDBram TankinkNLDRabobank05:03:56  +  00:09:45=37,311 
56 BELFrancis De GreefBELOmega Pharma - Lotto05:05:27  +  00:11:16=37,126 
57 SUIJakob FuglsangDNKTeam Saxo Bank05:05:38  +  00:11:27=37,103 
58 DENMatti BreschelDNKTeam Saxo Bank05:05:38  +  00:11:27=37,103 
59 ESPCarlos BarredoBELQuick Step05:05:51  +  00:11:40=37,077 
60 FRASylvain ChavanelBELQuick Step05:05:51  +  00:11:40=37,077 
61 USALance ArmstrongUSATeam Radio Shack05:05:56  +  00:11:45=37,067 
62 SLOJanez BrajkovicUSATeam Radio Shack05:05:56  +  00:11:45=37,067 
63 FRAChristophe MoreauESPCaisse d´Epargne05:05:56  +  00:11:45=37,067 
64 ITAMauro SantambrogioUSABMC Racing Team05:05:56  +  00:11:45=37,067 
65 ESPEgoi MartínezESPEuskaltel - Euskadi05:05:56  +  00:11:45=37,067 
66 FRAJérémy RoyFRAFrancaise Des Jeux05:05:56  +  00:11:45=37,067 
67 ITAFrancesco BellottiITALiquigas-Doimo05:05:56  +  00:11:45=37,067 
68 AUSMatthew LloydBELOmega Pharma - Lotto05:05:56  +  00:11:45=37,067 
69 DENChris Anker SørensenDNKTeam Saxo Bank05:05:56  +  00:11:45=37,067 
70 FRAThomas VoecklerFRABbox Bouygues Telecom05:05:56  +  00:11:45=37,067 
71 BLRAliaksandr KuchynskiITALiquigas-Doimo05:06:09  +  00:11:58=37,041 
72 ITAPaolo TiralongoKAZAstana Pro Team05:07:09  +  00:12:58=36,920 
73 UKRYaroslav PopovychUSATeam Radio Shack05:10:59  +  00:16:48=36,465 
74 FRAMaxime BouetFRAAg2r La Mondiale05:11:53  +  00:17:42=36,360 
75 FRAMatthieu SprickFRABbox Bouygues Telecom05:11:53  +  00:17:42=36,360 
76 GERLinus GerdemannDEUTeam Milram05:16:15  +  00:22:04=35,858 
77 GERFabian WegmannDEUTeam Milram05:16:22  +  00:22:11=35,844 
78 GERJens VoigtDNKTeam Saxo Bank05:16:22  +  00:22:11=35,844 
79 GERTony MartinUSATeam Columbia-HTC05:16:22  +  00:22:11=35,844 
80 FRAChristophe KernFRACofidis Le Credit En Ligne05:16:22  +  00:22:11=35,844 
81 FRASébastien TurgotFRABbox Bouygues Telecom05:17:32  +  00:23:21=35,713 
82 FRABenoit VaugrenardFRAFrancaise Des Jeux05:20:24  +  00:26:13=35,393 
83 RSARobert HunterUSAGarmin-Transitions05:22:00  +  00:27:49=35,217 
84 NEDLars BoomNLDRabobank05:22:00  +  00:27:49=35,217 
85 CANMichael BarryGBRSky Procycling05:22:00  +  00:27:49=35,217 
86 GERChristian KneesDEUTeam Milram05:22:00  +  00:27:49=35,217 
87 NEDMaarten TjallingiiNLDRabobank05:22:00  +  00:27:49=35,217 
88 ITAMauro Da DaltoITALampre-Farnese Vini05:22:00  +  00:27:49=35,217 
89 SLOGrega BoleITALampre-Farnese Vini05:22:00  +  00:27:49=35,217 
90 FRALloyd MondoryFRAAg2r La Mondiale05:22:00  +  00:27:49=35,217 
91 RUSSerguei IvanovRUSTeam Katusha05:22:00  +  00:27:49=35,217 
92 FRAStéphane AugeFRACofidis Le Credit En Ligne05:22:00  +  00:27:49=35,217 
93 DENNicki SørensenDNKTeam Saxo Bank05:22:00  +  00:27:49=35,217 
94 SLOKristjan KorenITALiquigas-Doimo05:22:00  +  00:27:49=35,217 
95 ESPIñaki Isasi FloresESPEuskaltel - Euskadi05:22:00  +  00:27:49=35,217 
96 USADavid ZabriskieUSAGarmin-Transitions05:22:00  +  00:27:49=35,217 
97 SUIMartin ElmigerFRAAg2r La Mondiale05:22:00  +  00:27:49=35,217 
98 ITAManuel QuinziatoITALiquigas-Doimo05:22:00  +  00:27:49=35,217 
99 ESPIban MayozESPFooton-Servetto05:22:00  +  00:27:49=35,217 
100 ITADaniel OssITALiquigas-Doimo05:22:00  +  00:27:49=35,217 
101 FRAMatthieu LadagnousFRAFrancaise Des Jeux05:22:00  +  00:27:49=35,217 
102 KAZMaxim IglinskiyKAZAstana Pro Team05:22:00  +  00:27:49=35,217 
103 ESPJesus  HernandezKAZAstana Pro Team05:22:00  +  00:27:49=35,217 
104 BELJürgen RoelandtsBELOmega Pharma - Lotto05:22:00  +  00:27:49=35,217 
105 FRAAnthony GeslinFRAFrancaise Des Jeux05:22:00  +  00:27:49=35,217 
106 NEDMartijn MaaskantUSAGarmin-Transitions05:22:00  +  00:27:49=35,217 
107 GERJohannes FröhlingerDEUTeam Milram05:22:00  +  00:27:49=35,217 
108 AUSWesley SulzbergerFRAFrancaise Des Jeux05:22:00  +  00:27:49=35,217 
109 ESPAlan PerezESPEuskaltel - Euskadi05:22:00  +  00:27:49=35,217 
110 ESPRuben PerezESPEuskaltel - Euskadi05:22:00  +  00:27:49=35,217 
111 ENGDaniel LloydCHECervelo Test Team05:22:00  +  00:27:49=35,217 
112 NOREdvald Boasson HagenGBRSky Procycling05:22:00  +  00:27:49=35,217 
113 WALGeraint ThomasGBRSky Procycling05:22:00  +  00:27:49=35,217 
114 ESPAitor PerezESPFooton-Servetto05:22:00  +  00:27:49=35,217 
115 JPNYukiya ArashiroFRABbox Bouygues Telecom05:22:00  +  00:27:49=35,217 
116 BELKevin SeeldraeyersBELQuick Step05:22:00  +  00:27:49=35,217 
117 GERDanilo HondoITALampre-Farnese Vini05:22:00  +  00:27:49=35,217 
118 USABrent BookwalterUSABMC Racing Team05:22:00  +  00:27:49=35,217 
119 URSIgnatas KonovalovasCHECervelo Test Team05:22:00  +  00:27:49=35,217 
120 NEDKarsten KroonUSABMC Racing Team05:22:00  +  00:27:49=35,217 
121 FRAAnthony RouxFRAFrancaise Des Jeux05:22:11  +  00:28:00=35,197 
122 GERMarcus BurghardtUSABMC Racing Team05:24:26  +  00:30:15=34,953 
123 SUIFabian CancellaraDNKTeam Saxo Bank05:24:26  +  00:30:15=34,953 
124 NZLJulian DeanUSAGarmin-Transitions05:25:18  +  00:31:07=34,860 
125 ESPJosé Joaquin RojasESPCaisse d´Epargne05:25:43  +  00:31:32=34,816 
126 MDAAlexandr PliuschinRUSTeam Katusha05:25:43  +  00:31:32=34,816 
127 ITAFrancesco GavazziITALampre-Farnese Vini05:25:43  +  00:31:32=34,816 
128 RUSAlexandr KolobnevRUSTeam Katusha05:25:43  +  00:31:32=34,816 
129 ESPJosé Ivan GutierrezESPCaisse d´Epargne05:25:43  +  00:31:32=34,816 
130 ARGJuan Antonio FlechaGBRSky Procycling05:25:43  +  00:31:32=34,816 
131 FRAJérôme PineauBELQuick Step05:25:43  +  00:31:32=34,816 
132 UKRAndriy GrivkoKAZAstana Pro Team05:25:43  +  00:31:32=34,816 
133 RUSEduard VorganovRUSTeam Katusha05:25:43  +  00:31:32=34,816 
134 USAGeorge HincapieUSABMC Racing Team05:25:43  +  00:31:32=34,816 
135 AUTThomas RohreggerDEUTeam Milram05:25:43  +  00:31:32=34,816 
136 ESPBenjamin NovalKAZAstana Pro Team05:25:43  +  00:31:32=34,816 
137 FRAPierrick FédrigoFRABbox Bouygues Telecom05:25:43  +  00:31:32=34,816 
138 FRARémy Di GrégorioFRAFrancaise Des Jeux05:25:43  +  00:31:32=34,816 
139 ESPDavid De La FuenteKAZAstana Pro Team05:25:43  +  00:31:32=34,816 
140 AUSLuke RobertsDEUTeam Milram05:25:43  +  00:31:32=34,816 
141 ESPJosé BenitezESPFooton-Servetto05:25:43  +  00:31:32=34,816 
142 BELJurgen Van De WalleBELQuick Step05:25:43  +  00:31:32=34,816 
143 GERSebastian LangBELOmega Pharma - Lotto05:25:43  +  00:31:32=34,816 
144 BLRVasil KiryienkaESPCaisse d´Epargne05:25:43  +  00:31:32=34,816 
145 RUSPavel BruttRUSTeam Katusha05:25:43  +  00:31:32=34,816 
146 RUSVladimir KarpetsRUSTeam Katusha05:25:43  +  00:31:32=34,816 
147 URSRein TaaramäeFRACofidis Le Credit En Ligne05:25:43  +  00:31:32=34,816 
148 ITADamiano CunegoITALampre-Farnese Vini05:25:43  +  00:31:32=34,816 
149 FRACyril GautierFRABbox Bouygues Telecom05:25:43  +  00:31:32=34,816 
150 FRANicolas VogondyFRABbox Bouygues Telecom05:25:43  +  00:31:32=34,816 
151 FRASébastien MinardFRACofidis Le Credit En Ligne05:25:43  +  00:31:32=34,816 
152 PORSergio PaulinhoUSATeam Radio Shack05:25:43  +  00:31:32=34,816 
153 ITARinaldo NocentiniFRAAg2r La Mondiale05:25:43  +  00:31:32=34,816 
154 PORRui CostaESPCaisse d´Epargne05:25:43  +  00:31:32=34,816 
155 ITAAlessandro BallanUSABMC Racing Team05:25:43  +  00:31:32=34,816 
156 MLTDavid MillarUSAGarmin-Transitions05:25:54  +  00:31:43=34,796 
157 ITAAlessandro PetacchiITALampre-Farnese Vini05:26:45  +  00:32:34=34,705 
158 FRADimitri ChampionFRAAg2r La Mondiale05:26:45  +  00:32:34=34,705 
159 GERBert GrabschUSATeam Columbia-HTC05:26:45  +  00:32:34=34,705 
160 ITAMirco LorenzettoITALampre-Farnese Vini05:26:45  +  00:32:34=34,705 
161 SUIGregory RastUSATeam Radio Shack05:26:45  +  00:32:34=34,705 
162 BELMaarten WynantsBELQuick Step05:26:45  +  00:32:34=34,705 
163 KAZDmitriy MuravyevUSATeam Radio Shack05:26:45  +  00:32:34=34,705 
164 ITAAdriano MaloriITALampre-Farnese Vini05:26:45  +  00:32:34=34,705 
165 SLOSimon SpilakITALampre-Farnese Vini05:26:45  +  00:32:34=34,705 
166 AUSMark RenshawUSATeam Columbia-HTC05:26:45  +  00:32:34=34,705 
167 AUSSimon GerransGBRSky Procycling05:26:45  +  00:32:34=34,705 
168 FRASamuel DumoulinFRACofidis Le Credit En Ligne05:26:45  +  00:32:34=34,705 
169 USATyler FarrarUSAGarmin-Transitions05:26:45  +  00:32:34=34,705 
170 AUSStuart O'GradyDNKTeam Saxo Bank05:26:45  +  00:32:34=34,705 
171 AUSBrett LancasterCHECervelo Test Team05:26:45  +  00:32:34=34,705 
172 BELDries DevenynsBELQuick Step05:26:45  +  00:32:34=34,705 
173 AUTBernhard EiselUSATeam Columbia-HTC05:26:45  +  00:32:34=34,705 
174 IOMMark CavendishUSATeam Columbia-HTC05:26:45  +  00:32:34=34,705 
175 ESPÓscar Freire GómezNLDRabobank05:26:45  +  00:32:34=34,705 
176 GERAndreas KlierCHECervelo Test Team05:26:45  +  00:32:34=34,705 
177 AUTMarkus EibeggerESPFooton-Servetto05:26:45  +  00:32:34=34,705 
178 ITAFrancesco RedaBELQuick Step05:26:45  +  00:32:34=34,705 
179 BELSerge PauwelsGBRSky Procycling05:26:45  +  00:32:34=34,705 
180 ENGStephen CummingsGBRSky Procycling05:26:45  +  00:32:34=34,705 
181 NORThor HushovdCHECervelo Test Team05:26:45  +  00:32:34=34,705 
182 AUSRobbie McEwenRUSTeam Katusha05:26:45  +  00:32:34=34,705 
183 CANJeremy HuntCHECervelo Test Team05:26:45  +  00:32:34=34,705 
184 GERGerald CiolekDEUTeam Milram05:26:45  +  00:32:34=34,705 
185 ITAFabio FellineESPFooton-Servetto05:26:45  +  00:32:34=34,705 
186 GERRoger KlugeDEUTeam Milram05:27:03  +  00:32:52=34,674 


Todays birthdays.

1895  François Colomines
1901  Victor Pellier
1921  Maurice Carpentier
1921  Hans Hutmacher
1924  Norbert Callens
1928  Armand Baeyens
1933  Adriano Zamboni
1944  Ercole Gualazzini
1952  Jose Lopez
1956  Alfons De Wolf
1958  Sergio Jaramillo
1961  José Vieira
1963  Luigi Furlan
1972  Dariusz Baranowski
1973  Cyril Saugrain
1975  Andréas Klöden
1977  Angelo Furlan
1979  Thomas Voeckler
1983  Jérémy Roy




Visits: